createdAt,value
2017-08-13T00:01:06.023Z,16.50
2017-08-13T00:03:32.408Z,16.50
2017-08-13T00:05:58.784Z,16.50
2017-08-13T00:08:25.267Z,16.40
2017-08-13T00:10:51.630Z,16.50
2017-08-13T00:13:18.764Z,16.50
2017-08-13T00:15:45.180Z,16.50
2017-08-13T00:18:11.569Z,16.60
2017-08-13T00:20:38.011Z,16.60
2017-08-13T00:23:04.403Z,16.50
2017-08-13T00:25:31.538Z,16.30
2017-08-13T00:27:57.939Z,16.30
2017-08-13T00:30:24.376Z,16.30
2017-08-13T00:32:50.772Z,16.30
2017-08-13T00:35:17.199Z,16.40
2017-08-13T00:37:43.656Z,16.40
2017-08-13T00:40:10.095Z,16.40
2017-08-13T00:42:36.523Z,16.40
2017-08-13T00:45:03.055Z,16.40
2017-08-13T00:47:29.479Z,16.40
2017-08-13T00:49:55.943Z,16.30
2017-08-13T00:52:22.398Z,16.30
2017-08-13T00:54:48.830Z,16.30
2017-08-13T00:57:15.223Z,16.40
2017-08-13T00:59:41.691Z,16.40
2017-08-13T01:02:08.095Z,16.40
2017-08-13T01:04:34.487Z,16.30
2017-08-13T01:07:01.632Z,16.20
2017-08-13T01:09:28.857Z,16.30
2017-08-13T01:11:55.227Z,16.30
2017-08-13T01:14:22.334Z,16.30
2017-08-13T01:16:48.743Z,16.30
2017-08-13T01:19:15.191Z,16.40
2017-08-13T01:21:41.570Z,16.30
2017-08-13T01:24:08.706Z,16.30
2017-08-13T01:26:35.080Z,16.30
2017-08-13T01:29:01.551Z,16.30
2017-08-13T01:31:27.940Z,16.10
2017-08-13T01:33:54.319Z,16.10
2017-08-13T01:36:20.752Z,16.20
2017-08-13T01:38:47.151Z,16.10
2017-08-13T01:41:13.532Z,16.10
2017-08-13T01:43:39.930Z,16.00
2017-08-13T01:46:06.303Z,16.00
2017-08-13T01:48:33.543Z,16.00
2017-08-13T01:50:59.920Z,16.00
2017-08-13T01:53:26.335Z,16.00
2017-08-13T01:55:52.723Z,16.00
2017-08-13T01:58:19.119Z,16.00
2017-08-13T02:00:45.583Z,16.00
2017-08-13T02:03:12.003Z,16.00
2017-08-13T02:05:38.399Z,16.00
2017-08-13T02:08:04.808Z,15.90
2017-08-13T02:10:31.270Z,15.90
2017-08-13T02:12:57.682Z,15.90
2017-08-13T02:15:24.836Z,15.80
2017-08-13T02:17:51.952Z,15.80
2017-08-13T02:20:18.352Z,15.80
2017-08-13T02:22:44.744Z,15.80
2017-08-13T02:25:11.869Z,15.80
2017-08-13T02:27:38.252Z,15.80
2017-08-13T02:30:04.718Z,15.70
2017-08-13T02:32:31.083Z,15.70
2017-08-13T02:34:58.235Z,15.70
2017-08-13T02:37:25.368Z,15.70
2017-08-13T02:39:51.763Z,15.70
2017-08-13T02:42:18.194Z,15.60
2017-08-13T02:44:44.568Z,15.60
2017-08-13T02:47:10.974Z,15.70
2017-08-13T02:49:37.377Z,15.70
2017-08-13T02:52:03.759Z,15.60
2017-08-13T02:54:30.159Z,15.60
2017-08-13T02:56:56.532Z,15.60
2017-08-13T02:59:23.732Z,15.60
2017-08-13T03:01:50.151Z,15.60
2017-08-13T03:04:16.592Z,15.60
2017-08-13T03:06:42.968Z,15.50
2017-08-13T03:09:09.367Z,15.50
2017-08-13T03:11:35.763Z,15.50
2017-08-13T03:14:02.911Z,15.40
2017-08-13T03:16:30.031Z,15.40
2017-08-13T03:18:56.528Z,15.40
2017-08-13T03:21:22.942Z,15.40
2017-08-13T03:23:49.356Z,15.40
2017-08-13T03:26:16.486Z,15.50
2017-08-13T03:28:43.003Z,15.50
2017-08-13T03:31:09.423Z,15.60
2017-08-13T03:33:35.795Z,15.50
2017-08-13T03:36:02.186Z,15.50
2017-08-13T03:38:28.639Z,15.40
2017-08-13T03:40:55.028Z,15.40
2017-08-13T03:43:21.455Z,15.50
2017-08-13T03:45:47.831Z,15.60
2017-08-13T03:48:14.223Z,15.60
2017-08-13T03:50:40.686Z,15.50
2017-08-13T03:53:07.103Z,15.50
2017-08-13T03:55:33.507Z,15.50
2017-08-13T03:58:00.634Z,15.40
2017-08-13T04:00:27.148Z,15.40
2017-08-13T04:02:53.523Z,15.40
2017-08-13T04:05:20.652Z,15.40
2017-08-13T04:07:47.064Z,15.40
2017-08-13T04:10:13.464Z,15.40
2017-08-13T04:12:39.919Z,15.40
2017-08-13T04:15:06.300Z,15.40
2017-08-13T04:17:32.687Z,15.40
2017-08-13T04:19:59.090Z,15.50
2017-08-13T04:22:25.509Z,15.50
2017-08-13T04:24:51.892Z,15.50
2017-08-13T04:27:18.319Z,15.60
2017-08-13T04:29:44.723Z,15.70
2017-08-13T04:32:11.119Z,15.70
2017-08-13T04:34:38.247Z,15.70
2017-08-13T04:37:04.620Z,15.70
2017-08-13T04:39:31.108Z,15.60
2017-08-13T04:41:57.539Z,15.60
2017-08-13T04:44:23.955Z,15.80
2017-08-13T04:46:50.349Z,15.70
2017-08-13T04:49:16.827Z,15.70
2017-08-13T04:51:43.227Z,15.80
2017-08-13T04:54:09.616Z,15.80
2017-08-13T04:56:36.007Z,15.90
2017-08-13T04:59:02.431Z,16.00
2017-08-13T05:01:28.850Z,16.10
2017-08-13T05:03:55.250Z,16.00
2017-08-13T05:06:21.654Z,15.90
2017-08-13T05:08:48.599Z,15.80
2017-08-13T05:11:15.106Z,15.50
2017-08-13T05:13:41.518Z,15.70
2017-08-13T05:16:07.894Z,15.80
2017-08-13T05:18:34.314Z,15.90
2017-08-13T05:21:00.701Z,15.70
2017-08-13T05:23:27.847Z,15.50
2017-08-13T05:25:54.983Z,15.60
2017-08-13T05:28:21.490Z,15.60
2017-08-13T05:30:47.884Z,15.80
2017-08-13T05:33:14.263Z,15.70
2017-08-13T05:35:40.635Z,15.90
2017-08-13T05:38:07.775Z,16.20
2017-08-13T05:40:35.000Z,16.20
2017-08-13T05:43:01.420Z,16.20
2017-08-13T05:45:27.820Z,16.10
2017-08-13T05:47:54.202Z,16.10
2017-08-13T05:50:21.011Z,16.30
2017-08-13T05:52:48.212Z,16.50
2017-08-13T05:55:15.378Z,16.60
2017-08-13T05:57:42.490Z,16.60
2017-08-13T06:00:08.923Z,16.60
2017-08-13T06:02:35.288Z,16.60
2017-08-13T06:05:02.428Z,16.60
2017-08-13T06:07:29.557Z,16.50
2017-08-13T06:09:55.993Z,16.50
2017-08-13T06:12:22.367Z,16.50
2017-08-13T06:14:48.774Z,16.50
2017-08-13T06:17:15.196Z,16.60
2017-08-13T06:19:41.624Z,16.60
2017-08-13T06:22:07.996Z,16.80
2017-08-13T06:24:34.390Z,16.80
2017-08-13T06:27:00.783Z,16.90
2017-08-13T06:29:27.215Z,17.00
2017-08-13T06:31:53.591Z,17.10
2017-08-13T06:34:20.772Z,17.30
2017-08-13T06:36:47.175Z,17.20
2017-08-13T06:39:13.688Z,17.40
2017-08-13T06:41:40.103Z,17.50
2017-08-13T06:44:06.527Z,17.50
2017-08-13T06:46:32.952Z,17.60
2017-08-13T06:48:59.428Z,17.70
2017-08-13T06:51:25.810Z,17.80
2017-08-13T06:53:52.189Z,17.90
2017-08-13T06:56:18.605Z,18.00
2017-08-13T06:58:45.031Z,18.10
2017-08-13T07:01:11.436Z,18.20
2017-08-13T07:03:37.880Z,18.30
2017-08-13T07:06:04.281Z,18.40
2017-08-13T07:08:31.414Z,18.60
2017-08-13T07:10:57.829Z,18.60
2017-08-13T07:13:24.256Z,18.70
2017-08-13T07:15:50.675Z,18.80
2017-08-13T07:18:17.039Z,18.90
2017-08-13T07:20:43.476Z,19.10
2017-08-13T07:23:09.884Z,19.20
2017-08-13T07:25:36.282Z,19.30
2017-08-13T07:28:02.639Z,19.30
2017-08-13T07:30:29.120Z,19.40
2017-08-13T07:32:56.255Z,19.60
2017-08-13T07:35:22.643Z,19.50
2017-08-13T07:37:49.032Z,19.70
2017-08-13T07:40:15.519Z,19.70
2017-08-13T07:42:41.963Z,19.80
2017-08-13T07:45:08.486Z,19.90
2017-08-13T07:47:34.940Z,20.00
2017-08-13T07:50:01.388Z,20.10
2017-08-13T07:52:27.868Z,20.20
2017-08-13T07:54:54.243Z,20.20
2017-08-13T07:57:20.623Z,20.30
2017-08-13T07:59:47.102Z,20.40
2017-08-13T08:02:13.522Z,20.50
2017-08-13T08:04:39.894Z,20.50
2017-08-13T08:07:06.305Z,20.60
2017-08-13T08:09:32.715Z,20.60
2017-08-13T08:11:59.105Z,20.70
2017-08-13T08:14:26.223Z,20.90
2017-08-13T08:16:52.614Z,20.90
2017-08-13T08:19:19.085Z,21.00
2017-08-13T08:21:45.454Z,21.10
2017-08-13T08:24:11.845Z,21.20
2017-08-13T08:26:38.255Z,21.30
2017-08-13T08:29:04.688Z,21.40
2017-08-13T08:31:31.097Z,21.40
2017-08-13T08:33:57.495Z,21.50
2017-08-13T08:36:23.911Z,21.60
2017-08-13T08:38:50.327Z,21.70
2017-08-13T08:41:16.736Z,21.80
2017-08-13T08:43:43.191Z,21.80
2017-08-13T08:46:09.651Z,21.90
2017-08-13T08:48:36.052Z,21.90
2017-08-13T08:51:02.463Z,22.00
2017-08-13T08:53:28.835Z,22.10
2017-08-13T08:55:55.290Z,22.20
2017-08-13T08:58:22.448Z,22.30
2017-08-13T09:00:49.625Z,22.30
2017-08-13T09:03:16.043Z,22.30
2017-08-13T09:05:42.464Z,22.30
2017-08-13T09:08:08.887Z,22.30
2017-08-13T09:10:35.376Z,22.30
2017-08-13T09:13:01.825Z,22.40
2017-08-13T09:15:28.226Z,22.40
2017-08-13T09:17:54.612Z,22.40
2017-08-13T09:20:21.032Z,22.40
2017-08-13T09:22:47.419Z,22.40
2017-08-13T09:25:13.807Z,22.50
2017-08-13T09:27:40.212Z,22.60
2017-08-13T09:30:06.707Z,22.70
2017-08-13T09:32:33.880Z,22.80
2017-08-13T09:35:00.295Z,22.80
2017-08-13T09:37:26.706Z,22.70
2017-08-13T09:39:53.923Z,22.70
2017-08-13T09:42:20.343Z,22.70
2017-08-13T09:44:46.726Z,22.80
2017-08-13T09:47:13.884Z,23.10
2017-08-13T09:49:41.102Z,23.20
2017-08-13T09:52:07.475Z,23.10
2017-08-13T09:54:33.891Z,23.20
2017-08-13T09:57:01.087Z,23.30
2017-08-13T09:59:27.575Z,23.20
2017-08-13T10:01:54.734Z,23.40
2017-08-13T10:04:21.863Z,23.50
2017-08-13T10:06:48.248Z,23.50
2017-08-13T10:09:14.739Z,23.70
2017-08-13T10:11:41.139Z,23.90
2017-08-13T10:14:07.507Z,24.00
2017-08-13T10:16:34.639Z,24.10
2017-08-13T10:19:01.057Z,24.10
2017-08-13T10:21:27.443Z,24.10
2017-08-13T10:23:53.859Z,24.20
2017-08-13T10:26:20.295Z,24.20
2017-08-13T10:28:46.795Z,24.40
2017-08-13T10:31:13.167Z,24.50
2017-08-13T10:33:40.283Z,24.50
2017-08-13T10:36:06.687Z,24.50
2017-08-13T10:38:33.106Z,24.60
2017-08-13T10:40:59.515Z,24.70
2017-08-13T10:43:25.906Z,24.80
2017-08-13T10:45:52.294Z,24.90
2017-08-13T10:48:19.522Z,25.00
2017-08-13T10:50:46.699Z,25.00
2017-08-13T10:53:13.060Z,25.00
2017-08-13T10:55:39.456Z,25.10
2017-08-13T10:58:05.826Z,25.30
2017-08-13T11:00:32.267Z,25.40
2017-08-13T11:02:58.639Z,25.40
2017-08-13T11:05:25.051Z,25.50
2017-08-13T11:07:51.468Z,25.60
2017-08-13T11:10:17.864Z,25.60
2017-08-13T11:12:44.243Z,25.70
2017-08-13T11:15:12.868Z,25.80
2017-08-13T11:17:39.396Z,25.80
2017-08-13T11:20:05.949Z,25.70
2017-08-13T11:22:32.336Z,25.70
2017-08-13T11:25:00.099Z,26.00
2017-08-13T11:27:26.513Z,26.00
2017-08-13T11:29:52.896Z,26.00
2017-08-13T11:32:19.306Z,26.10
2017-08-13T11:34:46.439Z,26.20
2017-08-13T11:37:12.822Z,26.20
2017-08-13T11:39:39.282Z,26.30
2017-08-13T11:42:05.664Z,26.40
2017-08-13T11:44:32.769Z,26.60
2017-08-13T11:46:59.155Z,26.60
2017-08-13T11:49:25.618Z,26.60
2017-08-13T11:51:52.008Z,26.60
2017-08-13T11:54:18.407Z,26.50
2017-08-13T11:56:44.796Z,26.60
2017-08-13T11:59:11.226Z,26.70
2017-08-13T12:01:37.619Z,26.80
2017-08-13T12:04:04.008Z,26.80
2017-08-13T12:06:30.403Z,26.90
2017-08-13T12:08:56.884Z,27.10
2017-08-13T12:11:23.510Z,27.20
2017-08-13T12:13:49.896Z,27.50
2017-08-13T12:16:16.313Z,27.70
2017-08-13T12:18:42.842Z,27.90
2017-08-13T12:21:09.235Z,27.90
2017-08-13T12:23:36.118Z,28.10
2017-08-13T12:26:02.535Z,28.30
2017-08-13T12:28:28.906Z,28.60
2017-08-13T12:30:55.291Z,28.90
2017-08-13T12:33:21.743Z,29.30
2017-08-13T12:35:48.119Z,29.60
2017-08-13T12:38:14.487Z,29.90
2017-08-13T12:40:40.927Z,30.20
2017-08-13T12:43:07.308Z,30.00
2017-08-13T12:45:34.431Z,29.90
2017-08-13T12:48:00.875Z,29.90
2017-08-13T12:50:27.351Z,29.70
2017-08-13T12:52:53.752Z,29.50
2017-08-13T12:55:20.887Z,30.00
2017-08-13T12:57:47.292Z,29.90
2017-08-13T13:00:13.717Z,30.40
2017-08-13T13:02:40.112Z,30.60
2017-08-13T13:05:06.519Z,30.90
2017-08-13T13:07:33.680Z,30.70
2017-08-13T13:10:00.855Z,30.40
2017-08-13T13:12:27.262Z,30.30
2017-08-13T13:14:54.432Z,29.90
2017-08-13T13:17:20.808Z,29.90
2017-08-13T13:19:47.223Z,30.00
2017-08-13T13:22:13.623Z,30.40
2017-08-13T13:24:40.034Z,30.80
2017-08-13T13:27:07.174Z,31.20
2017-08-13T13:29:34.415Z,31.10
2017-08-13T13:32:00.790Z,31.10
2017-08-13T13:34:27.163Z,31.20
2017-08-13T13:36:53.600Z,31.20
2017-08-13T13:39:20.009Z,31.60
2017-08-13T13:41:46.415Z,31.80
2017-08-13T13:44:12.835Z,32.00
2017-08-13T13:46:40.011Z,32.00
2017-08-13T13:49:06.480Z,32.00
2017-08-13T13:51:32.859Z,32.20
2017-08-13T13:53:59.313Z,32.20
2017-08-13T13:56:25.687Z,32.20
2017-08-13T13:58:52.150Z,32.30
2017-08-13T14:01:19.282Z,32.30
2017-08-13T14:03:45.731Z,32.30
2017-08-13T14:06:12.148Z,32.10
2017-08-13T14:08:38.625Z,32.30
2017-08-13T14:11:05.052Z,32.50
2017-08-13T14:13:31.440Z,32.50
2017-08-13T14:15:57.842Z,32.40
2017-08-13T14:18:24.267Z,32.20
2017-08-13T14:20:50.675Z,32.20
2017-08-13T14:23:17.059Z,32.30
2017-08-13T14:25:43.454Z,32.50
2017-08-13T14:28:09.863Z,32.60
2017-08-13T14:30:37.064Z,32.70
2017-08-13T14:33:03.506Z,32.70
2017-08-13T14:35:29.915Z,32.70
2017-08-13T14:37:56.311Z,32.80
2017-08-13T14:40:23.519Z,32.20
2017-08-13T14:42:49.966Z,32.20
2017-08-13T14:45:16.359Z,32.30
2017-08-13T14:47:42.768Z,32.20
2017-08-13T14:50:09.255Z,32.30
2017-08-13T14:52:35.679Z,32.10
2017-08-13T14:55:02.064Z,32.10
2017-08-13T14:57:28.435Z,32.10
2017-08-13T14:59:54.956Z,31.70
2017-08-13T15:02:21.432Z,31.80
2017-08-13T15:04:47.815Z,31.60
2017-08-13T15:07:14.255Z,31.40
2017-08-13T15:09:40.735Z,31.10
2017-08-13T15:12:07.135Z,30.70
2017-08-13T15:14:33.527Z,30.10
2017-08-13T15:16:59.982Z,29.80
2017-08-13T15:19:26.439Z,29.40
2017-08-13T15:21:52.823Z,29.10
2017-08-13T15:24:19.940Z,28.50
2017-08-13T15:26:46.400Z,28.40
2017-08-13T15:29:13.592Z,28.10
2017-08-13T15:31:39.975Z,28.10
2017-08-13T15:34:07.129Z,27.80
2017-08-13T15:36:33.519Z,27.70
2017-08-13T15:38:59.926Z,27.70
2017-08-13T15:41:26.352Z,27.60
2017-08-13T15:43:52.779Z,27.40
2017-08-13T15:46:19.187Z,27.40
2017-08-13T15:48:45.955Z,27.40
2017-08-13T15:51:12.359Z,27.20
2017-08-13T15:53:38.770Z,27.20
2017-08-13T15:56:05.172Z,27.10
2017-08-13T15:58:31.556Z,26.90
2017-08-13T16:00:58.678Z,26.80
2017-08-13T16:03:25.120Z,26.80
2017-08-13T16:05:51.508Z,26.70
2017-08-13T16:08:17.927Z,26.80
2017-08-13T16:10:44.408Z,26.70
2017-08-13T16:13:10.836Z,26.70
2017-08-13T16:15:37.223Z,26.60
2017-08-13T16:18:03.604Z,26.50
2017-08-13T16:20:30.058Z,26.50
2017-08-13T16:22:56.431Z,26.50
2017-08-13T16:25:22.806Z,26.40
2017-08-13T16:27:49.202Z,26.30
2017-08-13T16:30:15.643Z,26.20
2017-08-13T16:32:42.046Z,26.10
2017-08-13T16:35:08.482Z,26.00
2017-08-13T16:37:34.868Z,26.00
2017-08-13T16:40:01.308Z,25.90
2017-08-13T16:42:27.720Z,25.80
2017-08-13T16:44:54.079Z,25.80
2017-08-13T16:47:20.504Z,25.70
2017-08-13T16:49:47.001Z,25.60
2017-08-13T16:52:13.399Z,25.50
2017-08-13T16:54:39.833Z,25.50
2017-08-13T16:57:06.216Z,25.30
2017-08-13T16:59:32.811Z,25.30
2017-08-13T17:01:59.273Z,25.30
2017-08-13T17:04:25.728Z,25.20
2017-08-13T17:06:52.139Z,25.20
2017-08-13T17:09:18.587Z,25.20
2017-08-13T17:11:44.998Z,25.00
2017-08-13T17:14:11.399Z,25.00
2017-08-13T17:16:38.511Z,24.90
2017-08-13T17:19:04.931Z,24.90
2017-08-13T17:21:31.352Z,24.90
2017-08-13T17:23:57.744Z,24.70
2017-08-13T17:26:24.875Z,24.70
2017-08-13T17:28:51.391Z,24.70
2017-08-13T17:31:17.807Z,24.70
2017-08-13T17:33:44.203Z,24.70
2017-08-13T17:36:10.607Z,24.60
2017-08-13T17:38:37.095Z,24.60
2017-08-13T17:41:03.478Z,24.60
2017-08-13T17:43:29.895Z,24.50
2017-08-13T17:45:56.384Z,24.40
2017-08-13T17:48:22.783Z,24.40
2017-08-13T17:50:50.012Z,24.20
2017-08-13T17:53:16.395Z,24.20
2017-08-13T17:55:42.788Z,24.20
2017-08-13T17:58:09.159Z,24.20
2017-08-13T18:00:35.593Z,24.10
2017-08-13T18:03:02.012Z,24.00
2017-08-13T18:05:28.476Z,23.90
2017-08-13T18:07:54.906Z,23.80
2017-08-13T18:10:21.338Z,23.80
2017-08-13T18:12:47.725Z,23.60
2017-08-13T18:15:14.880Z,23.50
2017-08-13T18:17:41.280Z,23.50
2017-08-13T18:20:07.747Z,23.40
2017-08-13T18:22:34.942Z,23.20
2017-08-13T18:25:01.364Z,23.20
2017-08-13T18:27:27.751Z,23.20
2017-08-13T18:29:54.240Z,23.10
2017-08-13T18:32:20.654Z,23.10
2017-08-13T18:34:47.095Z,23.00
2017-08-13T18:37:13.472Z,22.90
2017-08-13T18:39:40.217Z,22.90
2017-08-13T18:42:06.594Z,22.80
2017-08-13T18:44:32.993Z,22.70
2017-08-13T18:46:59.408Z,22.70
2017-08-13T18:49:25.933Z,22.60
2017-08-13T18:51:52.303Z,22.50
2017-08-13T18:54:19.539Z,22.40
2017-08-13T18:56:45.975Z,22.40
2017-08-13T18:59:13.203Z,22.30
2017-08-13T19:01:39.620Z,22.20
2017-08-13T19:04:06.031Z,22.20
2017-08-13T19:06:32.395Z,22.10
2017-08-13T19:08:58.818Z,22.00
2017-08-13T19:11:25.216Z,22.00
2017-08-13T19:13:51.624Z,21.90
2017-08-13T19:16:18.745Z,21.70
2017-08-13T19:18:45.178Z,21.70
2017-08-13T19:21:11.575Z,21.70
2017-08-13T19:23:37.958Z,21.70
2017-08-13T19:26:04.334Z,21.60
2017-08-13T19:28:30.811Z,21.60
2017-08-13T19:30:57.220Z,21.60
2017-08-13T19:33:23.639Z,21.60
2017-08-13T19:35:50.068Z,21.50
2017-08-13T19:38:16.448Z,21.40
2017-08-13T19:40:42.869Z,21.30
2017-08-13T19:43:09.249Z,21.30
2017-08-13T19:45:35.662Z,21.30
2017-08-13T19:48:02.048Z,21.30
2017-08-13T19:50:28.479Z,21.20
2017-08-13T19:52:54.917Z,21.20
2017-08-13T19:55:21.291Z,21.10
2017-08-13T19:57:47.696Z,21.10
2017-08-13T20:00:14.713Z,21.00
2017-08-13T20:02:41.180Z,21.00
2017-08-13T20:05:07.805Z,20.90
2017-08-13T20:07:34.232Z,20.80
2017-08-13T20:10:00.668Z,20.70
2017-08-13T20:12:27.113Z,20.60
2017-08-13T20:14:53.503Z,20.50
2017-08-13T20:17:19.967Z,20.40
2017-08-13T20:19:46.412Z,20.40
2017-08-13T20:22:12.816Z,20.40
2017-08-13T20:24:39.212Z,20.30
2017-08-13T20:27:06.335Z,20.20
2017-08-13T20:29:32.730Z,20.20
2017-08-13T20:31:59.131Z,20.10
2017-08-13T20:34:25.512Z,20.10
2017-08-13T20:36:51.927Z,20.10
2017-08-13T20:39:18.363Z,19.90
2017-08-13T20:41:44.774Z,19.90
2017-08-13T20:44:11.163Z,19.90
2017-08-13T20:46:37.588Z,19.80
2017-08-13T20:49:04.090Z,19.70
2017-08-13T20:51:30.466Z,19.60
2017-08-13T20:53:56.864Z,19.60
2017-08-13T20:56:23.248Z,19.60
2017-08-13T20:58:50.468Z,19.50
2017-08-13T21:01:16.867Z,19.40
2017-08-13T21:03:43.285Z,19.50
2017-08-13T21:06:09.652Z,19.50
2017-08-13T21:08:36.036Z,19.30
2017-08-13T21:11:03.259Z,19.40
2017-08-13T21:13:36.526Z,19.30
2017-08-13T21:16:02.938Z,19.30
2017-08-13T21:18:29.364Z,19.20
2017-08-13T21:20:55.775Z,19.10
2017-08-13T21:23:22.903Z,19.10
2017-08-13T21:25:49.307Z,19.10
2017-08-13T21:28:15.727Z,19.10
2017-08-13T21:30:42.173Z,19.10
2017-08-13T21:33:08.610Z,19.10
2017-08-13T21:35:34.979Z,19.10
2017-08-13T21:38:01.424Z,19.00
2017-08-13T21:40:28.634Z,19.00
2017-08-13T21:42:55.032Z,19.00
2017-08-13T21:45:21.451Z,18.90
2017-08-13T21:47:47.832Z,18.90
2017-08-13T21:50:14.447Z,18.80
2017-08-13T21:52:40.928Z,18.80
2017-08-13T21:55:07.453Z,18.80
2017-08-13T21:57:33.873Z,18.70
2017-08-13T22:00:00.387Z,18.70
2017-08-13T22:02:26.831Z,18.60
2017-08-13T22:04:53.198Z,18.60
2017-08-13T22:07:19.586Z,18.50
2017-08-13T22:09:46.033Z,18.50
2017-08-13T22:12:12.440Z,18.50
2017-08-13T22:14:38.807Z,18.40
2017-08-13T22:17:05.218Z,18.50
2017-08-13T22:19:31.631Z,18.40
2017-08-13T22:21:58.033Z,18.40
2017-08-13T22:24:24.482Z,18.40
2017-08-13T22:26:50.860Z,18.40
2017-08-13T22:29:17.271Z,18.40
2017-08-13T22:31:43.695Z,18.40
2017-08-13T22:34:10.084Z,18.30
2017-08-13T22:36:37.203Z,18.30
2017-08-13T22:39:03.743Z,18.30
2017-08-13T22:41:30.123Z,18.30
2017-08-13T22:43:56.543Z,18.30
2017-08-13T22:46:23.672Z,18.20
2017-08-13T22:48:50.160Z,18.20
2017-08-13T22:51:16.551Z,18.20
2017-08-13T22:53:43.678Z,18.10
2017-08-13T22:56:10.125Z,18.10
2017-08-13T22:58:37.331Z,18.10
2017-08-13T23:01:07.593Z,18.10
2017-08-13T23:03:34.020Z,18.00
2017-08-13T23:06:00.399Z,17.90
2017-08-13T23:08:26.792Z,17.90
2017-08-13T23:10:53.325Z,17.90
2017-08-13T23:13:19.749Z,17.90
2017-08-13T23:15:46.170Z,17.90
2017-08-13T23:18:12.607Z,17.90
2017-08-13T23:20:39.043Z,17.90
2017-08-13T23:23:05.418Z,17.90
2017-08-13T23:25:31.832Z,17.80
2017-08-13T23:27:58.239Z,17.80
2017-08-13T23:30:24.656Z,17.80
2017-08-13T23:32:51.080Z,17.80
2017-08-13T23:35:17.499Z,17.90
2017-08-13T23:37:43.883Z,17.90
2017-08-13T23:40:10.304Z,17.90
2017-08-13T23:42:36.673Z,17.90
2017-08-13T23:45:03.826Z,17.90
2017-08-13T23:47:30.246Z,17.90
2017-08-13T23:49:57.439Z,18.00
2017-08-13T23:52:23.873Z,18.00
2017-08-13T23:54:50.272Z,18.00
2017-08-13T23:57:17.396Z,18.00
2017-08-13T23:59:43.901Z,18.00
